Terminal Aerodrome Forecast
Issued by NWS

Home | Current Version | Previous Version | Text Only | Print | Product List | Glossary On
Versions: 1 2 3 4 5 6 7 8 9 10 11 12 13 14 15 16 17
000
FTUS46 KLOX 311734 CCA
TAFPRB
TAF COR
KPRB 311734Z 3118/0118 32005KT P6SM SKC
     FM312200 21008KT P6SM SKC
     FM010400 30012KT P6SM SKC
     FM011000 VRB03KT 1SM BR OVC003=

USA.gov is the U.S. government's official web portal to all federal, state and local government web resources and services.